Aviation Digital Data Service (ADDS)

Output produced by TAFs form (2343 UTC 31 May 2016)
found at http://www.aviationweather.gov/adds/tafs/
 
KPSF 312331Z 0100/0124 29009KT P6SM SKC 
     FM010200 30005KT P6SM SKC 
     FM010600 VRB03KT P6SM FEW250 
     FM011300 04006KT P6SM SCT250 
     FM011800 14007KT P6SM SCT250